Time;durP1;ratioP1;P1;durP2;ratioP2;P2;SDS_P1;SDS_P2;PMS_P1;PMS_P2;Temp;Humidity;BMP_temperature;BMP_pressure;BME280_temperature;BME280_humidity;BME280_pressure;Samples;Min_cycle;Max_cycle;Signal;HPM_P1;HPM_P2
2023/09/24 00:00:20;;;;;;;;;32.50;28.00;;;;;;;;6307517;22;45508;-74
2023/09/24 00:02:45;;;;;;;;;34.50;31.25;;;;;;;;6308346;22;45281;-74
2023/09/24 00:05:12;;;;;;;;;32.25;31.75;;;;;;;;6280607;22;45418;-75
2023/09/24 00:07:38;;;;;;;;;32.75;29.50;;;;;;;;6307241;22;45480;-74
2023/09/24 00:10:03;;;;;;;;;32.50;25.75;;;;;;;;6308673;22;45227;-74
2023/09/24 00:12:29;;;;;;;;;29.50;26.75;;;;;;;;6280222;22;45264;-75
2023/09/24 00:14:54;;;;;;;;;32.25;30.75;;;;;;;;6309055;22;45340;-74
2023/09/24 00:17:19;;;;;;;;;28.25;27.50;;;;;;;;6308681;22;45181;-74
2023/09/24 00:19:45;;;;;;;;;28.00;27.00;;;;;;;;6311174;22;45255;-74
2023/09/24 00:22:10;;;;;;;;;25.50;24.75;;;;;;;;6312092;22;45287;-75
2023/09/24 00:24:36;;;;;;;;;31.75;28.25;;;;;;;;6311838;22;45152;-74
2023/09/24 00:27:01;;;;;;;;;28.50;26.50;;;;;;;;6311723;22;45145;-74
2023/09/24 00:29:27;;;;;;;;;28.25;26.25;;;;;;;;6311422;22;46375;-74
2023/09/24 00:31:52;;;;;;;;;30.50;27.00;;;;;;;;6312103;22;45261;-74
2023/09/24 00:34:18;;;;;;;;;30.75;29.00;;;;;;;;6283881;22;45611;-74
2023/09/24 00:36:43;;;;;;;;;28.25;25.25;;;;;;;;6311827;22;45340;-74
2023/09/24 00:39:08;;;;;;;;;30.00;28.25;;;;;;;;6311555;22;46430;-75
2023/09/24 00:41:33;;;;;;;;;33.25;24.50;;;;;;;;6282974;22;45302;-75
2023/09/24 00:44:00;;;;;;;;;28.50;26.25;;;;;;;;6312066;22;45510;-74
2023/09/24 00:46:25;;;;;;;;;32.75;27.25;;;;;;;;6311514;22;45339;-74
2023/09/24 00:48:52;;;;;;;;;31.75;28.50;;;;;;;;6283121;22;45629;-75
2023/09/24 00:51:19;;;;;;;;;28.50;26.25;;;;;;;;6283456;22;45349;-75
2023/09/24 00:53:45;;;;;;;;;29.50;26.25;;;;;;;;6283684;22;45318;-74
2023/09/24 00:56:11;;;;;;;;;31.25;30.00;;;;;;;;6311104;22;45369;-75
2023/09/24 00:58:36;;;;;;;;;32.50;30.00;;;;;;;;6282404;22;47976;-75
2023/09/24 01:01:03;;;;;;;;;26.25;25.00;;;;;;;;6311998;22;45263;-74
2023/09/24 01:03:28;;;;;;;;;30.25;28.75;;;;;;;;6311701;22;45166;-74
2023/09/24 01:05:54;;;;;;;;;33.00;30.00;;;;;;;;6311138;22;45191;-74
2023/09/24 01:08:20;;;;;;;;;33.00;31.25;;;;;;;;6283166;22;46320;-75
2023/09/24 01:10:48;;;;;;;;;34.00;29.50;;;;;;;;6311497;22;45262;-74
2023/09/24 01:13:19;;;;;;;;;32.75;30.25;;;;;;;;6283186;22;45391;-74
2023/09/24 01:15:45;;;;;;;;;29.75;27.75;;;;;;;;6283326;22;46248;-74
2023/09/24 01:18:10;;;;;;;;;28.00;25.25;;;;;;;;6310925;22;45172;-74
2023/09/24 01:20:36;;;;;;;;;33.25;29.50;;;;;;;;6311218;22;45294;-75
2023/09/24 01:23:04;;;;;;;;;27.00;26.00;;;;;;;;6310979;22;45193;-75
2023/09/24 01:25:35;;;;;;;;;30.25;26.25;;;;;;;;6283211;22;45367;-74
2023/09/24 01:28:03;;;;;;;;;35.75;31.50;;;;;;;;6281330;22;48030;-74
2023/09/24 01:30:28;;;;;;;;;33.00;30.50;;;;;;;;6309389;22;45240;-74
2023/09/24 01:32:53;;;;;;;;;31.25;26.50;;;;;;;;6281071;22;45302;-73
2023/09/24 01:35:25;;;;;;;;;30.50;25.25;;;;;;;;6309587;22;45429;-75
2023/09/24 01:37:52;;;;;;;;;27.75;26.50;;;;;;;;6308807;22;45497;-74
2023/09/24 01:40:21;;;;;;;;;30.75;29.00;;;;;;;;6281579;22;45236;-75
2023/09/24 01:42:47;;;;;;;;;33.00;29.75;;;;;;;;6308747;22;45176;-74
2023/09/24 01:45:13;;;;;;;;;33.75;28.25;;;;;;;;6281298;22;45453;-74
2023/09/24 01:47:38;;;;;;;;;34.25;29.50;;;;;;;;6309165;22;46296;-75
2023/09/24 01:50:08;;;;;;;;;31.25;29.75;;;;;;;;6309264;22;45215;-74
2023/09/24 01:52:34;;;;;;;;;33.25;32.00;;;;;;;;6309313;22;45234;-74
2023/09/24 01:55:00;;;;;;;;;41.50;33.50;;;;;;;;6309225;22;45258;-75
2023/09/24 01:57:25;;;;;;;;;32.25;30.25;;;;;;;;6308985;22;46628;-75
2023/09/24 01:59:50;;;;;;;;;31.50;27.00;;;;;;;;6308251;22;45204;-74
2023/09/24 02:02:15;;;;;;;;;29.75;28.25;;;;;;;;6310116;22;45194;-75
2023/09/24 02:04:41;;;;;;;;;26.75;24.00;;;;;;;;6308967;22;45200;-75
2023/09/24 02:07:08;;;;;;;;;30.25;28.25;;;;;;;;6309141;22;45217;-74
2023/09/24 02:09:35;;;;;;;;;32.75;31.75;;;;;;;;6309005;22;45617;-74
2023/09/24 02:12:00;;;;;;;;;31.00;26.00;;;;;;;;6309446;22;45283;-75
2023/09/24 02:14:25;;;;;;;;;29.00;26.50;;;;;;;;6308928;22;45485;-74
2023/09/24 02:16:51;;;;;;;;;30.50;28.00;;;;;;;;6308567;22;45401;-74
2023/09/24 02:19:17;;;;;;;;;31.50;27.25;;;;;;;;6309038;22;45300;-74
2023/09/24 02:21:42;;;;;;;;;31.25;29.50;;;;;;;;6309785;22;45173;-74
2023/09/24 02:24:08;;;;;;;;;29.00;23.50;;;;;;;;6308605;22;45312;-74
2023/09/24 02:26:34;;;;;;;;;31.00;27.00;;;;;;;;6309021;22;46259;-74
2023/09/24 02:28:59;;;;;;;;;32.75;30.00;;;;;;;;6308898;22;45258;-74
2023/09/24 02:31:24;;;;;;;;;26.00;25.50;;;;;;;;6309691;22;45352;-74
2023/09/24 02:33:49;;;;;;;;;30.25;28.00;;;;;;;;6309251;22;45384;-76
2023/09/24 02:36:14;;;;;;;;;28.75;25.25;;;;;;;;6309312;22;46476;-74
2023/09/24 02:38:40;;;;;;;;;27.50;24.25;;;;;;;;6309129;22;45219;-74
2023/09/24 02:41:05;;;;;;;;;29.50;27.00;;;;;;;;6309274;22;45244;-74
2023/09/24 02:43:32;;;;;;;;;27.75;24.00;;;;;;;;6308464;22;45222;-74
2023/09/24 02:45:58;;;;;;;;;31.25;26.25;;;;;;;;6280825;22;46171;-74
2023/09/24 02:48:23;;;;;;;;;29.25;24.00;;;;;;;;6308890;22;45204;-74
2023/09/24 02:50:50;;;;;;;;;30.00;27.75;;;;;;;;6309135;22;45405;-74
2023/09/24 02:53:16;;;;;;;;;25.25;22.75;;;;;;;;6309045;22;45156;-75
2023/09/24 02:55:41;;;;;;;;;28.00;25.00;;;;;;;;6281060;22;45627;-76
2023/09/24 02:58:06;;;;;;;;;27.00;24.50;;;;;;;;6308339;22;45184;-76
2023/09/24 03:00:36;;;;;;;;;28.75;26.25;;;;;;;;6281153;22;45280;-76
2023/09/24 03:03:03;;;;;;;;;27.00;25.00;;;;;;;;6308927;22;45254;-76
2023/09/24 03:05:29;;;;;;;;;27.00;25.50;;;;;;;;6308591;22;45344;-76
2023/09/24 03:07:55;;;;;;;;;26.00;25.25;;;;;;;;6280268;22;45331;-76
2023/09/24 03:10:21;;;;;;;;;26.25;23.50;;;;;;;;6309249;22;45130;-76
2023/09/24 03:12:47;;;;;;;;;29.75;27.00;;;;;;;;6280522;22;45824;-76
2023/09/24 03:15:13;;;;;;;;;29.50;26.50;;;;;;;;6309029;22;46145;-76
2023/09/24 03:17:39;;;;;;;;;27.75;24.00;;;;;;;;6308822;22;45236;-76
2023/09/24 03:20:14;;;;;;;;;26.75;26.75;;;;;;;;6309455;22;45273;-76
2023/09/24 03:22:40;;;;;;;;;25.25;25.25;;;;;;;;6280471;22;45825;-75
2023/09/24 03:25:08;;;;;;;;;30.75;28.25;;;;;;;;6308908;22;45243;-76
2023/09/24 03:27:33;;;;;;;;;30.75;28.25;;;;;;;;6308240;22;45180;-76
2023/09/24 03:29:59;;;;;;;;;33.25;28.25;;;;;;;;6309090;22;45251;-76
2023/09/24 03:32:24;;;;;;;;;28.25;26.25;;;;;;;;6308846;22;45277;-76
2023/09/24 03:34:49;;;;;;;;;27.25;25.50;;;;;;;;6280326;22;48607;-76
2023/09/24 03:37:16;;;;;;;;;27.50;24.00;;;;;;;;6280816;22;45256;-76
2023/09/24 03:39:41;;;;;;;;;34.25;25.75;;;;;;;;6308883;22;45295;-76
2023/09/24 03:42:06;;;;;;;;;26.25;22.75;;;;;;;;6308593;22;45301;-76
2023/09/24 03:44:32;;;;;;;;;26.50;26.50;;;;;;;;6279996;22;46758;-75
2023/09/24 03:46:57;;;;;;;;;25.50;24.50;;;;;;;;6308861;22;45273;-76
2023/09/24 03:49:22;;;;;;;;;26.00;25.50;;;;;;;;6308830;22;45195;-76
2023/09/24 03:51:48;;;;;;;;;29.50;26.50;;;;;;;;6308694;22;45266;-76
2023/09/24 03:54:13;;;;;;;;;30.75;27.00;;;;;;;;6307806;22;45379;-76
2023/09/24 03:56:39;;;;;;;;;27.00;24.75;;;;;;;;6308481;22;45272;-76
2023/09/24 03:59:04;;;;;;;;;25.00;24.75;;;;;;;;6307591;22;45212;-76
2023/09/24 04:01:31;;;;;;;;;30.00;27.00;;;;;;;;6280798;22;45444;-76
2023/09/24 04:03:59;;;;;;;;;33.25;28.25;;;;;;;;6308586;22;45558;-76
2023/09/24 04:06:24;;;;;;;;;22.25;21.25;;;;;;;;6308203;22;45213;-77
2023/09/24 04:08:50;;;;;;;;;28.00;26.25;;;;;;;;6308539;22;45160;-76
2023/09/24 04:11:15;;;;;;;;;24.25;23.50;;;;;;;;6280961;22;46962;-76
2023/09/24 04:13:41;;;;;;;;;34.75;26.00;;;;;;;;6307824;22;45298;-76
2023/09/24 04:16:11;;;;;;;;;33.00;27.00;;;;;;;;6308846;22;45858;-76
2023/09/24 04:18:37;;;;;;;;;21.00;21.00;;;;;;;;6308599;22;45287;-76
2023/09/24 04:21:02;;;;;;;;;28.50;24.75;;;;;;;;6308663;22;45106;-76
2023/09/24 04:23:27;;;;;;;;;27.50;24.75;;;;;;;;6308230;22;46519;-76
2023/09/24 04:25:54;;;;;;;;;23.50;22.50;;;;;;;;6308693;22;45327;-76
2023/09/24 04:28:19;;;;;;;;;26.25;22.25;;;;;;;;6279041;22;45156;-76
2023/09/24 04:30:45;;;;;;;;;24.50;23.25;;;;;;;;6308488;22;45223;-76
2023/09/24 04:33:10;;;;;;;;;28.25;22.50;;;;;;;;6308322;22;46237;-76
2023/09/24 04:35:35;;;;;;;;;31.75;27.00;;;;;;;;6308506;22;45265;-76
2023/09/24 04:38:01;;;;;;;;;27.00;23.75;;;;;;;;6308309;22;45481;-76
2023/09/24 04:40:27;;;;;;;;;26.50;23.50;;;;;;;;6308401;22;45282;-76
2023/09/24 04:42:52;;;;;;;;;25.00;24.00;;;;;;;;6307573;22;45267;-76
2023/09/24 04:45:17;;;;;;;;;23.50;22.00;;;;;;;;6308454;22;45271;-76
2023/09/24 04:47:43;;;;;;;;;26.25;24.25;;;;;;;;6308208;22;45241;-76
2023/09/24 04:50:12;;;;;;;;;23.25;23.25;;;;;;;;6308252;22;45302;-76
2023/09/24 04:52:38;;;;;;;;;22.50;20.00;;;;;;;;6307616;22;45255;-76
2023/09/24 04:55:05;;;;;;;;;26.50;24.00;;;;;;;;6308377;22;45268;-76
2023/09/24 04:57:30;;;;;;;;;24.00;22.50;;;;;;;;6308094;22;45240;-76
2023/09/24 04:59:55;;;;;;;;;26.50;23.00;;;;;;;;6307536;22;45177;-76
2023/09/24 05:02:21;;;;;;;;;21.75;21.75;;;;;;;;6308250;22;45289;-76
2023/09/24 05:04:47;;;;;;;;;26.50;23.25;;;;;;;;6308667;22;45199;-76
2023/09/24 05:07:12;;;;;;;;;24.75;20.50;;;;;;;;6309361;22;45282;-76
2023/09/24 05:09:38;;;;;;;;;27.50;23.75;;;;;;;;6309269;22;45323;-76
2023/09/24 05:12:03;;;;;;;;;26.75;22.75;;;;;;;;6309488;22;45267;-76
2023/09/24 05:14:28;;;;;;;;;22.00;19.75;;;;;;;;6308907;22;45217;-76
2023/09/24 05:16:54;;;;;;;;;27.25;25.00;;;;;;;;6282020;22;45232;-76
2023/09/24 05:19:19;;;;;;;;;22.25;20.00;;;;;;;;6309626;22;45306;-76
2023/09/24 05:21:44;;;;;;;;;26.25;20.25;;;;;;;;6309625;22;46326;-76
2023/09/24 05:24:10;;;;;;;;;23.25;21.25;;;;;;;;6309623;22;45220;-77
2023/09/24 05:26:35;;;;;;;;;18.25;17.25;;;;;;;;6309645;22;45444;-76
2023/09/24 05:29:00;;;;;;;;;21.50;19.25;;;;;;;;6281225;22;45961;-76
2023/09/24 05:31:25;;;;;;;;;25.25;20.50;;;;;;;;6309693;22;46662;-76
2023/09/24 05:33:50;;;;;;;;;22.00;18.75;;;;;;;;6309223;22;45253;-77
2023/09/24 05:36:16;;;;;;;;;18.50;18.50;;;;;;;;6281828;22;45173;-76
2023/09/24 05:38:41;;;;;;;;;16.50;16.25;;;;;;;;6309234;22;45173;-76
2023/09/24 05:41:06;;;;;;;;;21.25;19.00;;;;;;;;6309652;22;45283;-75
2023/09/24 05:43:32;;;;;;;;;24.75;21.75;;;;;;;;6308859;22;45182;-76
2023/09/24 05:45:57;;;;;;;;;26.50;21.50;;;;;;;;6311083;22;45140;-76
2023/09/24 05:48:22;;;;;;;;;22.25;18.75;;;;;;;;6280900;22;45685;-76
2023/09/24 05:50:47;;;;;;;;;19.75;17.75;;;;;;;;6309520;22;46138;-76
2023/09/24 05:53:13;;;;;;;;;20.25;17.50;;;;;;;;6309233;22;45209;-76
2023/09/24 05:55:39;;;;;;;;;25.50;22.00;;;;;;;;6309307;22;45275;-76
2023/09/24 05:58:05;;;;;;;;;23.75;21.75;;;;;;;;6308254;22;45101;-74
2023/09/24 06:00:31;;;;;;;;;22.50;20.50;;;;;;;;6280255;22;47291;-75
2023/09/24 06:02:56;;;;;;;;;20.25;20.25;;;;;;;;6307342;22;45364;-76
2023/09/24 06:05:22;;;;;;;;;22.75;19.00;;;;;;;;6309229;22;45242;-75
2023/09/24 06:07:47;;;;;;;;;18.75;15.25;;;;;;;;6308777;22;45322;-75
2023/09/24 06:10:12;;;;;;;;;19.50;16.50;;;;;;;;6309313;22;45412;-75
2023/09/24 06:12:37;;;;;;;;;22.50;21.00;;;;;;;;6280227;22;45283;-75
2023/09/24 06:15:03;;;;;;;;;22.50;19.00;;;;;;;;6309434;22;45270;-75
2023/09/24 06:17:29;;;;;;;;;20.25;19.25;;;;;;;;6308873;22;45199;-75
2023/09/24 06:19:55;;;;;;;;;17.75;17.25;;;;;;;;6308703;22;45267;-76
2023/09/24 06:22:21;;;;;;;;;23.50;20.00;;;;;;;;6309531;22;45274;-76
2023/09/24 06:24:46;;;;;;;;;22.00;19.00;;;;;;;;6308921;22;45350;-75
2023/09/24 06:27:11;;;;;;;;;24.00;18.00;;;;;;;;6309078;22;45102;-75
2023/09/24 06:29:36;;;;;;;;;19.50;15.75;;;;;;;;6280391;22;45507;-75
2023/09/24 06:32:02;;;;;;;;;23.00;18.00;;;;;;;;6309521;22;45152;-76
2023/09/24 06:34:27;;;;;;;;;17.25;17.00;;;;;;;;6280937;22;45243;-74
2023/09/24 06:36:52;;;;;;;;;17.25;14.00;;;;;;;;6309239;22;45395;-76
2023/09/24 06:39:17;;;;;;;;;16.75;16.75;;;;;;;;6280658;22;47037;-76
2023/09/24 06:41:42;;;;;;;;;21.75;16.50;;;;;;;;6309270;22;45205;-75
2023/09/24 06:44:08;;;;;;;;;21.75;18.00;;;;;;;;6308324;22;45212;-75
2023/09/24 06:46:34;;;;;;;;;19.75;17.25;;;;;;;;6309085;22;45453;-75
2023/09/24 06:49:00;;;;;;;;;18.50;18.00;;;;;;;;6308818;22;45290;-76
2023/09/24 06:51:25;;;;;;;;;15.50;15.25;;;;;;;;6307427;22;44610;-76
2023/09/24 06:53:52;;;;;;;;;18.25;16.50;;;;;;;;6308685;22;45223;-76
2023/09/24 06:56:17;;;;;;;;;23.00;18.50;;;;;;;;6280845;22;45465;-75
2023/09/24 06:58:42;;;;;;;;;17.25;16.75;;;;;;;;6308174;22;46547;-76
2023/09/24 07:01:09;;;;;;;;;21.00;16.50;;;;;;;;6281430;22;45246;-76
2023/09/24 07:03:35;;;;;;;;;11.75;10.75;;;;;;;;6309275;22;45280;-76
2023/09/24 07:06:02;;;;;;;;;17.50;15.75;;;;;;;;6308636;22;45223;-76
2023/09/24 07:08:27;;;;;;;;;9.50;9.25;;;;;;;;6308516;22;45197;-76
2023/09/24 07:11:13;;;;;;;;;9.50;8.50;;;;;;;;6309116;22;45124;-75
2023/09/24 07:13:38;;;;;;;;;7.50;7.00;;;;;;;;6307578;22;45430;-76
2023/09/24 07:16:05;;;;;;;;;8.00;8.00;;;;;;;;6308586;22;45477;-76
2023/09/24 07:18:31;;;;;;;;;6.75;5.00;;;;;;;;6308027;22;46391;-76
2023/09/24 07:20:56;;;;;;;;;8.50;7.00;;;;;;;;6308887;22;45203;-76
2023/09/24 07:23:21;;;;;;;;;9.67;7.00;;;;;;;;6308943;22;45521;-76
2023/09/24 07:25:46;;;;;;;;;6.67;6.00;;;;;;;;6308516;22;45571;-76
2023/09/24 07:28:11;;;;;;;;;8.67;7.67;;;;;;;;6307219;22;45361;-75
2023/09/24 07:30:37;;;;;;;;;6.00;6.00;;;;;;;;6280447;22;45300;-76
2023/09/24 07:33:02;;;;;;;;;10.33;8.00;;;;;;;;6308344;22;45311;-75
2023/09/24 07:35:27;;;;;;;;;7.33;6.33;;;;;;;;6308975;22;45191;-75
2023/09/24 07:37:52;;;;;;;;;6.00;5.00;;;;;;;;6307762;22;45347;-75
2023/09/24 07:40:18;;;;;;;;;9.33;5.67;;;;;;;;6308591;22;45210;-75
2023/09/24 07:42:46;;;;;;;;;7.33;5.00;;;;;;;;6307596;22;45318;-76
2023/09/24 07:45:13;;;;;;;;;7.67;6.33;;;;;;;;6308091;22;45220;-76
2023/09/24 07:47:38;;;;;;;;;8.00;7.00;;;;;;;;6308221;22;45314;-76
2023/09/24 07:50:04;;;;;;;;;8.67;7.00;;;;;;;;6308328;22;45291;-76
2023/09/24 07:52:30;;;;;;;;;6.33;6.33;;;;;;;;6308416;22;45210;-76
2023/09/24 07:54:55;;;;;;;;;6.00;5.00;;;;;;;;6307939;22;46213;-76
2023/09/24 07:57:21;;;;;;;;;8.67;7.67;;;;;;;;6308105;22;45422;-76
2023/09/24 07:59:46;;;;;;;;;8.00;4.33;;;;;;;;6307591;22;45251;-73
2023/09/24 08:02:11;;;;;;;;;6.00;6.00;;;;;;;;6279702;22;45241;-75
2023/09/24 08:04:36;;;;;;;;;5.00;5.00;;;;;;;;6307996;22;45138;-74
2023/09/24 08:07:01;;;;;;;;;8.00;6.00;;;;;;;;6308187;22;46469;-75
2023/09/24 08:09:27;;;;;;;;;7.00;6.33;;;;;;;;6308446;22;45279;-75
2023/09/24 08:11:52;;;;;;;;;8.00;5.33;;;;;;;;6280423;22;45379;-75
2023/09/24 08:14:17;;;;;;;;;7.00;4.67;;;;;;;;6307983;22;45380;-74
2023/09/24 08:16:43;;;;;;;;;6.33;4.00;;;;;;;;6308026;22;45429;-75
2023/09/24 08:19:08;;;;;;;;;7.33;5.00;;;;;;;;6308065;22;45219;-75
2023/09/24 08:21:33;;;;;;;;;4.33;4.33;;;;;;;;6308573;22;45283;-75
2023/09/24 08:23:58;;;;;;;;;6.67;5.33;;;;;;;;6307963;22;45239;-75
2023/09/24 08:26:23;;;;;;;;;6.67;5.67;;;;;;;;6307799;22;45539;-75
2023/09/24 08:28:49;;;;;;;;;5.00;4.33;;;;;;;;6307485;22;45253;-75
2023/09/24 08:31:14;;;;;;;;;4.00;4.00;;;;;;;;6308071;22;45273;-75
2023/09/24 08:33:39;;;;;;;;;4.67;4.67;;;;;;;;6307524;22;45206;-75
2023/09/24 08:36:09;;;;;;;;;4.33;4.33;;;;;;;;6308035;22;46191;-75
2023/09/24 08:38:34;;;;;;;;;3.67;3.67;;;;;;;;6307710;22;45185;-74
2023/09/24 08:41:00;;;;;;;;;5.00;5.00;;;;;;;;6280935;22;45234;-74
2023/09/24 08:43:27;;;;;;;;;4.67;3.33;;;;;;;;6280449;22;46103;-74
2023/09/24 08:45:52;;;;;;;;;4.00;3.67;;;;;;;;6309116;22;46361;-74
2023/09/24 08:48:19;;;;;;;;;9.00;4.33;;;;;;;;6309175;22;45210;-75
2023/09/24 08:50:45;;;;;;;;;3.67;3.67;;;;;;;;6281362;22;45335;-75
2023/09/24 08:53:11;;;;;;;;;6.33;4.67;;;;;;;;6309328;22;45298;-75
2023/09/24 08:55:36;;;;;;;;;7.00;4.00;;;;;;;;6281315;22;46994;-75
2023/09/24 08:58:01;;;;;;;;;6.00;5.00;;;;;;;;6308593;22;45205;-75
2023/09/24 09:00:27;;;;;;;;;5.33;3.67;;;;;;;;6309480;22;45292;-75
2023/09/24 09:02:52;;;;;;;;;5.00;4.67;;;;;;;;6309357;22;45201;-75
2023/09/24 09:05:24;;;;;;;;;4.67;4.00;;;;;;;;6309414;22;46287;-76
2023/09/24 09:07:58;;;;;;;;;6.33;4.67;;;;;;;;6280241;22;45304;-75
2023/09/24 09:10:25;;;;;;;;;3.67;3.67;;;;;;;;6309012;22;45157;-75
2023/09/24 09:12:51;;;;;;;;;5.00;4.00;;;;;;;;6308484;22;45220;-76
2023/09/24 09:15:19;;;;;;;;;5.00;3.00;;;;;;;;6309453;22;46130;-76
2023/09/24 09:17:44;;;;;;;;;4.00;3.67;;;;;;;;6308642;22;45257;-75
2023/09/24 09:20:10;;;;;;;;;4.67;3.67;;;;;;;;6309141;22;45334;-75
2023/09/24 09:22:35;;;;;;;;;5.00;5.00;;;;;;;;6309180;22;45265;-76
2023/09/24 09:25:05;;;;;;;;;4.33;3.33;;;;;;;;6281138;22;46947;-75
2023/09/24 09:27:31;;;;;;;;;7.33;5.67;;;;;;;;6308717;22;45240;-77
2023/09/24 09:30:18;;;;;;;;;5.00;3.67;;;;;;;;6309330;22;45278;-75
2023/09/24 09:32:44;;;;;;;;;5.00;4.00;;;;;;;;6308519;22;45603;-76
2023/09/24 09:35:10;;;;;;;;;4.00;3.00;;;;;;;;6309059;22;45194;-76
2023/09/24 09:37:36;;;;;;;;;8.00;3.33;;;;;;;;6310944;22;45262;-78
2023/09/24 09:40:03;;;;;;;;;4.00;3.00;;;;;;;;6309530;22;45400;-76
2023/09/24 09:42:33;;;;;;;;;3.33;3.00;;;;;;;;6279796;22;45735;-74
2023/09/24 09:45:01;;;;;;;;;3.00;3.00;;;;;;;;6279899;22;46846;-76
2023/09/24 09:47:27;;;;;;;;;2.67;2.67;;;;;;;;6309263;22;45409;-75
2023/09/24 09:49:57;;;;;;;;;3.00;3.00;;;;;;;;6279519;22;45343;-75
2023/09/24 09:52:26;;;;;;;;;2.00;2.00;;;;;;;;6308230;22;45339;-75
2023/09/24 09:54:54;;;;;;;;;4.67;3.67;;;;;;;;6308906;22;45329;-76
2023/09/24 09:57:20;;;;;;;;;2.00;2.00;;;;;;;;6280548;22;45284;-76
2023/09/24 09:59:46;;;;;;;;;5.25;1.50;;;;;;;;6280180;22;45432;-76
2023/09/24 10:02:12;;;;;;;;;4.00;4.00;;;;;;;;6309011;22;45268;-76
2023/09/24 10:04:37;;;;;;;;;2.25;2.00;;;;;;;;6308639;22;45943;-76
2023/09/24 10:07:03;;;;;;;;;3.25;3.25;;;;;;;;6281099;22;45285;-76
2023/09/24 10:09:31;;;;;;;;;5.25;3.25;;;;;;;;6309160;22;45213;-76
2023/09/24 10:11:56;;;;;;;;;5.25;3.25;;;;;;;;6308580;22;45270;-76
2023/09/24 10:14:33;;;;;;;;;22.33;20.00;;;;;;;;6280389;22;48105;-76
2023/09/24 10:17:17;;;;;;;;;6.00;4.50;;;;;;;;6308942;22;45339;-75
2023/09/24 10:19:50;;;;;;;;;1.50;1.50;;;;;;;;6280586;22;45282;-76
2023/09/24 10:22:32;;;;;;;;;3.50;2.25;;;;;;;;6307327;22;45158;-77
2023/09/24 10:24:57;;;;;;;;;2.00;1.50;;;;;;;;6307966;22;46852;-76
2023/09/24 10:27:45;;;;;;;;;3.75;3.75;;;;;;;;6280014;22;45260;-76
2023/09/24 10:30:11;;;;;;;;;4.50;3.00;;;;;;;;6305156;22;45114;-76
2023/09/24 10:32:43;;;;;;;;;3.00;3.00;;;;;;;;6308822;22;45275;-76
2023/09/24 10:35:09;;;;;;;;;11.25;5.50;;;;;;;;6309034;22;45974;-77
2023/09/24 10:37:34;;;;;;;;;3.00;3.00;;;;;;;;6308995;22;45156;-76
2023/09/24 10:40:03;;;;;;;;;3.50;3.00;;;;;;;;6309244;22;45194;-77
2023/09/24 10:42:30;;;;;;;;;2.00;2.00;;;;;;;;6280543;22;45830;-76
2023/09/24 10:45:07;;;;;;;;;3.00;2.00;;;;;;;;6308569;22;45323;-76
2023/09/24 10:47:38;;;;;;;;;3.75;1.25;;;;;;;;6308950;22;45227;-76
2023/09/24 10:50:06;;;;;;;;;5.00;4.00;;;;;;;;6280592;22;45315;-75
2023/09/24 10:52:46;;;;;;;;;2.25;2.25;;;;;;;;6308690;22;45362;-76
2023/09/24 10:55:12;;;;;;;;;1.25;1.25;;;;;;;;6308692;22;45489;-75
2023/09/24 10:57:37;;;;;;;;;4.00;3.00;;;;;;;;6308329;22;45248;-75
2023/09/24 11:00:02;;;;;;;;;2.00;2.00;;;;;;;;6308905;22;45244;-75
2023/09/24 11:02:28;;;;;;;;;3.50;2.00;;;;;;;;6308844;22;45277;-76
2023/09/24 11:04:53;;;;;;;;;0.75;0.75;;;;;;;;6308615;22;45290;-74
2023/09/24 11:07:18;;;;;;;;;3.00;1.75;;;;;;;;6308576;22;45212;-79
2023/09/24 11:09:49;;;;;;;;;3.50;1.75;;;;;;;;6279730;22;45268;-73
2023/09/24 11:12:15;;;;;;;;;2.25;2.25;;;;;;;;6280322;22;46841;-73
2023/09/24 11:14:40;;;;;;;;;2.75;2.75;;;;;;;;6308837;22;46353;-75
2023/09/24 11:17:05;;;;;;;;;2.75;2.75;;;;;;;;6309290;22;45215;-74
2023/09/24 11:19:43;;;;;;;;;10.25;10.25;;;;;;;;6280612;22;45245;-75
2023/09/24 11:22:25;;;;;;;;;62.67;50.33;;;;;;;;6308827;22;45306;-75
2023/09/24 11:25:10;;;;;;;;;14.67;14.67;;;;;;;;6308014;22;45267;-74
2023/09/24 11:27:52;;;;;;;;;6.00;6.00;;;;;;;;6307986;22;45228;-75
2023/09/24 11:30:18;;;;;;;;;9.50;7.25;;;;;;;;6308807;22;45230;-75
2023/09/24 11:32:44;;;;;;;;;9.00;8.25;;;;;;;;6308588;22;45193;-74
2023/09/24 11:35:13;;;;;;;;;3.00;3.00;;;;;;;;6280247;22;47443;-73
2023/09/24 11:37:58;;;;;;;;;5.00;4.00;;;;;;;;6308375;22;45231;-74
2023/09/24 11:40:25;;;;;;;;;5.50;4.00;;;;;;;;6308832;22;45236;-74
2023/09/24 11:42:55;;;;;;;;;6.00;5.75;;;;;;;;6279522;22;46243;-73
2023/09/24 11:45:39;;;;;;;;;2.25;2.25;;;;;;;;6308189;22;45626;-74
2023/09/24 11:48:05;;;;;;;;;3.00;3.00;;;;;;;;6308206;22;45263;-72
2023/09/24 11:50:30;;;;;;;;;2.00;2.00;;;;;;;;6308642;22;45179;-73
2023/09/24 11:52:55;;;;;;;;;6.75;6.25;;;;;;;;6307779;22;45444;-73
2023/09/24 11:55:21;;;;;;;;;3.50;3.50;;;;;;;;6308632;22;46322;-73
2023/09/24 11:57:46;;;;;;;;;7.25;5.00;;;;;;;;6307830;22;45178;-74
2023/09/24 12:00:12;;;;;;;;;3.25;3.25;;;;;;;;6308067;22;45243;-73
2023/09/24 12:02:37;;;;;;;;;5.00;3.25;;;;;;;;6303736;22;45576;-74
2023/09/24 12:05:03;;;;;;;;;15.25;12.75;;;;;;;;6305354;22;45551;-73
2023/09/24 12:07:31;;;;;;;;;4.50;4.50;;;;;;;;6303459;22;45356;-75
2023/09/24 12:09:57;;;;;;;;;3.50;3.50;;;;;;;;6305798;22;45355;-75
2023/09/24 12:12:22;;;;;;;;;17.75;16.75;;;;;;;;6278394;22;45667;-72
2023/09/24 12:14:47;;;;;;;;;19.67;16.67;;;;;;;;6276335;22;46707;-73
2023/09/24 12:17:12;;;;;;;;;54.67;44.33;;;;;;;;6278646;22;45273;-73
2023/09/24 12:19:37;;;;;;;;;11.75;11.75;;;;;;;;6306235;22;45451;-73
2023/09/24 12:22:03;;;;;;;;;7.50;6.75;;;;;;;;6306314;22;45211;-74
2023/09/24 12:24:28;;;;;;;;;1.50;1.50;;;;;;;;6306295;22;46231;-73
2023/09/24 12:26:53;;;;;;;;;3.25;1.50;;;;;;;;6277951;22;45285;-73
2023/09/24 12:29:18;;;;;;;;;3.00;3.00;;;;;;;;6306566;22;45423;-74
2023/09/24 12:31:43;;;;;;;;;4.00;3.00;;;;;;;;6305686;22;45471;-73
2023/09/24 12:34:08;;;;;;;;;3.50;3.25;;;;;;;;6306162;22;45215;-74
2023/09/24 12:36:34;;;;;;;;;4.25;2.00;;;;;;;;6305801;22;45370;-72
2023/09/24 12:38:59;;;;;;;;;10.25;10.25;;;;;;;;6306463;22;45342;-72
2023/09/24 12:41:24;;;;;;;;;16.50;14.50;;;;;;;;6306119;22;45282;-71
2023/09/24 12:43:50;;;;;;;;;36.33;27.67;;;;;;;;6304956;22;45393;-74
2023/09/24 12:46:15;;;;;;;;;9.00;6.00;;;;;;;;6306418;22;45236;-73
2023/09/24 12:48:40;;;;;;;;;8.00;5.50;;;;;;;;6306058;22;45241;-74
2023/09/24 12:51:05;;;;;;;;;10.25;8.00;;;;;;;;6306368;22;45642;-74
2023/09/24 12:53:32;;;;;;;;;7.50;5.50;;;;;;;;6305075;22;46293;-74
2023/09/24 12:55:58;;;;;;;;;1.20;1.20;;;;;;;;6305928;22;45417;-74
2023/09/24 12:58:23;;;;;;;;;8.00;7.00;;;;;;;;6304829;22;45333;-73
2023/09/24 13:00:48;;;;;;;;;6.25;4.50;;;;;;;;6306312;22;45539;-73
2023/09/24 13:03:14;;;;;;;;;2.50;1.00;;;;;;;;6304667;22;46428;-72
2023/09/24 13:05:39;;;;;;;;;2.00;1.25;;;;;;;;6278443;22;45343;-73
2023/09/24 13:08:04;;;;;;;;;3.75;3.00;;;;;;;;6305945;22;45423;-73
2023/09/24 13:10:29;;;;;;;;;2.00;2.00;;;;;;;;6305868;22;45275;-73
2023/09/24 13:12:55;;;;;;;;;3.00;1.50;;;;;;;;6276315;22;47671;-73
2023/09/24 13:15:20;;;;;;;;;4.25;2.25;;;;;;;;6276040;22;45592;-72
2023/09/24 13:17:45;;;;;;;;;2.00;2.00;;;;;;;;6278478;22;45305;-72
2023/09/24 13:20:11;;;;;;;;;1.00;1.00;;;;;;;;6277086;22;45365;-73
2023/09/24 13:22:36;;;;;;;;;2.25;2.25;;;;;;;;6305134;22;45623;-72
2023/09/24 13:25:02;;;;;;;;;2.75;2.75;;;;;;;;6305909;22;45379;-73
2023/09/24 13:27:27;;;;;;;;;2.25;2.00;;;;;;;;6307078;22;45588;-73
2023/09/24 13:29:52;;;;;;;;;3.00;2.25;;;;;;;;6279093;22;45492;-74
2023/09/24 13:32:19;;;;;;;;;1.75;1.75;;;;;;;;6278664;22;45598;-73
2023/09/24 13:34:44;;;;;;;;;3.40;2.00;;;;;;;;6307418;22;45284;-73
2023/09/24 13:37:09;;;;;;;;;4.25;3.00;;;;;;;;6306570;22;45268;-73
2023/09/24 13:39:35;;;;;;;;;1.75;1.75;;;;;;;;6278552;22;45554;-74
2023/09/24 13:42:00;;;;;;;;;2.25;2.25;;;;;;;;6306302;22;46354;-73
2023/09/24 13:44:25;;;;;;;;;2.75;2.75;;;;;;;;6306981;22;45145;-73
2023/09/24 13:46:51;;;;;;;;;3.50;2.00;;;;;;;;6307458;22;45267;-73
2023/09/24 13:49:17;;;;;;;;;29.00;27.00;;;;;;;;6306604;22;45409;-73
2023/09/24 13:51:43;;;;;;;;;3.25;2.25;;;;;;;;6306895;22;45660;-72
2023/09/24 13:54:08;;;;;;;;;2.75;2.25;;;;;;;;6306341;22;45382;-73
2023/09/24 13:56:34;;;;;;;;;3.00;2.00;;;;;;;;6307848;22;45448;-73
2023/09/24 13:58:59;;;;;;;;;2.75;1.25;;;;;;;;6272186;22;45366;-72
2023/09/24 14:01:24;;;;;;;;;2.00;2.00;;;;;;;;6276076;22;45504;-71
2023/09/24 14:03:52;;;;;;;;;1.00;1.00;;;;;;;;6271905;22;45369;-72
2023/09/24 14:06:17;;;;;;;;;2.50;1.25;;;;;;;;6275600;22;45206;-72
2023/09/24 14:14:11;;;;;;;;;2.60;2.60;;;;;;;;6274970;22;45188;-72
2023/09/24 14:16:38;;;;;;;;;2.00;2.00;;;;;;;;6276197;22;45225;-72
2023/09/24 14:19:03;;;;;;;;;1.00;1.00;;;;;;;;6273525;22;45934;-73
2023/09/24 14:21:29;;;;;;;;;2.00;2.00;;;;;;;;6274976;22;45635;-72
2023/09/24 14:23:54;;;;;;;;;2.50;2.50;;;;;;;;6274805;22;45222;-72
2023/09/24 14:26:19;;;;;;;;;1.00;1.00;;;;;;;;6272625;22;45477;-72
2023/09/24 14:28:44;;;;;;;;;1.75;1.75;;;;;;;;6275995;22;45417;-72